Time;durP1;ratioP1;P1;durP2;ratioP2;P2;SDS_P1;SDS_P2;PMS_P1;PMS_P2;Temp;Humidity;BMP_temperature;BMP_pressure;BME280_temperature;BME280_humidity;BME280_pressure;Samples;Min_cycle;Max_cycle;Signal;HPM_P1;HPM_P2
2022/11/10 00:00:56;;;;;;;7.30;3.25;;;10.00;99.90;;;;;;5051684;28;20036;-79
2022/11/10 00:03:22;;;;;;;7.50;2.90;;;10.00;99.90;;;;;;5046054;28;20044;-79
2022/11/10 00:05:48;;;;;;;10.05;3.05;;;10.00;99.90;;;;;;5042551;28;20152;-79
2022/11/10 00:08:14;;;;;;;7.40;3.53;;;10.00;99.90;;;;;;5049890;28;20058;-79
2022/11/10 00:10:56;;;;;;;5.90;2.90;;;10.00;99.90;;;;;;5048810;28;20122;-79
2022/11/10 00:13:34;;;;;;;12.00;3.05;;;10.00;99.90;;;;;;5044908;28;20956;-79
2022/11/10 00:18:49;;;;;;;7.50;2.90;;;9.90;99.90;;;;;;5050023;28;20078;-79
2022/11/10 00:21:16;;;;;;;7.05;3.45;;;9.90;99.90;;;;;;5041820;28;20060;-79
2022/11/10 00:23:42;;;;;;;16.65;3.15;;;9.90;99.90;;;;;;5040657;28;20386;-79
2022/11/10 00:26:17;;;;;;;10.77;4.00;;;9.90;99.90;;;;;;5048531;28;20571;-79
2022/11/10 00:28:43;;;;;;;6.72;3.17;;;9.90;99.90;;;;;;5050401;28;20046;-79
2022/11/10 00:31:10;;;;;;;5.30;2.78;;;9.80;99.90;;;;;;5050358;28;20056;-79
2022/11/10 00:33:37;;;;;;;9.07;3.90;;;9.80;99.90;;;;;;5053189;28;20068;-79
2022/11/10 00:36:04;;;;;;;8.88;3.70;;;9.80;99.90;;;;;;5051495;28;20052;-78
2022/11/10 00:38:29;;;;;;;10.65;3.28;;;9.80;99.90;;;;;;5045343;28;20044;-79
2022/11/10 00:40:58;;;;;;;4.93;3.00;;;9.80;99.90;;;;;;5053846;28;20047;-79
2022/11/10 00:43:24;;;;;;;7.65;3.25;;;9.70;99.90;;;;;;5050001;28;20049;-79
2022/11/10 00:45:50;;;;;;;9.07;3.92;;;9.70;99.90;;;;;;5050732;28;20118;-79
2022/11/10 00:48:16;;;;;;;11.25;3.50;;;9.80;99.90;;;;;;5052288;28;20550;-79
2022/11/10 00:50:41;;;;;;;9.20;5.10;;;9.80;99.90;;;;;;5051856;28;20131;-79
2022/11/10 00:53:07;;;;;;;10.32;4.10;;;9.80;99.90;;;;;;5043867;28;20501;-79
2022/11/10 00:55:37;;;;;;;11.35;3.53;;;9.80;99.90;;;;;;5049740;28;20064;-79
2022/11/10 00:58:03;;;;;;;7.45;4.32;;;9.80;99.90;;;;;;5042659;28;20126;-79
2022/11/10 01:00:28;;;;;;;6.85;3.88;;;9.70;99.90;;;;;;5045469;28;20048;-79
2022/11/10 01:02:54;;;;;;;12.77;5.18;;;9.70;99.90;;;;;;5050280;28;20056;-78
2022/11/10 01:05:20;;;;;;;5.72;4.03;;;9.70;99.90;;;;;;5045623;28;20052;-79
2022/11/10 01:07:46;;;;;;;8.63;4.43;;;9.60;99.90;;;;;;5052065;28;20151;-79
2022/11/10 01:10:12;;;;;;;7.85;4.22;;;9.60;99.90;;;;;;5007610;28;20044;-78
2022/11/10 01:12:37;;;;;;;5.18;4.15;;;9.60;99.90;;;;;;5049338;28;20049;-79
2022/11/10 01:15:04;;;;;;;6.38;4.20;;;9.60;99.90;;;;;;5052870;28;20811;-79
2022/11/10 01:17:30;;;;;;;8.25;4.60;;;9.60;99.90;;;;;;5049416;28;20060;-78
2022/11/10 01:19:55;;;;;;;12.82;5.35;;;9.60;99.90;;;;;;5044747;28;20041;-79
2022/11/10 01:22:21;;;;;;;11.18;5.93;;;9.60;99.90;;;;;;5044274;28;20063;-79
2022/11/10 01:24:47;;;;;;;13.70;5.40;;;9.50;99.90;;;;;;5043718;28;20143;-78
2022/11/10 01:27:13;;;;;;;11.90;5.45;;;9.60;99.90;;;;;;5039503;28;20322;-79
2022/11/10 01:29:38;;;;;;;10.13;4.78;;;9.60;99.90;;;;;;5050285;28;20051;-79
2022/11/10 01:32:04;;;;;;;12.05;4.95;;;9.50;99.90;;;;;;5053241;28;20408;-79
2022/11/10 01:34:30;;;;;;;12.50;6.18;;;9.60;99.90;;;;;;5041472;28;20114;-79
2022/11/10 01:36:56;;;;;;;15.73;5.72;;;9.50;99.90;;;;;;5053924;28;20137;-79
2022/11/10 01:39:21;;;;;;;14.18;5.35;;;9.60;99.90;;;;;;5050007;28;20059;-78
2022/11/10 01:41:47;;;;;;;12.80;6.45;;;9.60;99.90;;;;;;5048055;28;20073;-79
2022/11/10 01:44:18;;;;;;;15.80;5.65;;;9.80;99.90;;;;;;5044594;28;20041;-79
2022/11/10 01:46:43;;;;;;;21.25;6.90;;;9.90;99.90;;;;;;5050492;28;20048;-78
2022/11/10 01:49:11;;;;;;;15.73;6.50;;;9.60;99.90;;;;;;5047651;28;20301;-79
2022/11/10 01:51:36;;;;;;;10.52;5.88;;;9.50;99.90;;;;;;5047913;28;20370;-78
2022/11/10 01:54:08;;;;;;;15.68;5.60;;;9.60;99.90;;;;;;5051645;28;20603;-78
2022/11/10 01:56:40;;;;;;;13.57;6.03;;;9.50;99.90;;;;;;5044697;28;20061;-78
2022/11/10 01:59:11;;;;;;;14.18;6.13;;;9.60;99.90;;;;;;5047772;28;20743;-79
2022/11/10 02:01:37;;;;;;;13.07;5.97;;;9.50;99.90;;;;;;5045202;28;20044;-79
2022/11/10 02:04:07;;;;;;;8.32;4.78;;;9.50;99.90;;;;;;5048538;28;20053;-78
2022/11/10 02:06:36;;;;;;;15.18;6.20;;;9.50;99.90;;;;;;5044851;28;20049;-79
2022/11/10 02:09:02;;;;;;;10.90;5.72;;;9.40;99.90;;;;;;5050193;28;20235;-78
2022/11/10 02:11:28;;;;;;;11.70;6.55;;;9.50;99.90;;;;;;5045127;28;20680;-79
2022/11/10 02:13:55;;;;;;;20.30;7.20;;;9.40;99.90;;;;;;5055615;28;20039;-79
2022/11/10 02:16:21;;;;;;;12.48;5.53;;;9.40;99.90;;;;;;5045606;28;20052;-79
2022/11/10 02:18:47;;;;;;;10.85;6.82;;;9.50;99.90;;;;;;5047249;28;20095;-79
2022/11/10 02:21:16;;;;;;;11.73;5.93;;;9.40;99.90;;;;;;5049553;28;20055;-79
2022/11/10 02:23:45;;;;;;;12.25;6.20;;;9.40;99.90;;;;;;5047106;28;20064;-79
2022/11/10 02:26:13;;;;;;;9.68;5.63;;;9.40;99.90;;;;;;5042368;28;20603;-78
2022/11/10 02:28:39;;;;;;;14.20;7.00;;;9.50;99.90;;;;;;5054302;28;20053;-78
2022/11/10 02:31:05;;;;;;;12.27;7.40;;;9.40;99.90;;;;;;5050850;28;20044;-79
2022/11/10 02:33:31;;;;;;;12.35;7.20;;;9.40;99.90;;;;;;5043759;28;20745;-78
2022/11/10 02:35:57;;;;;;;15.00;6.40;;;9.50;99.90;;;;;;5048986;28;20048;-78
2022/11/10 02:38:22;;;;;;;11.77;5.97;;;9.40;99.90;;;;;;5049184;28;20481;-78
2022/11/10 02:40:48;;;;;;;9.90;6.03;;;9.50;99.90;;;;;;5036432;28;20099;-78
2022/11/10 02:43:17;;;;;;;13.85;6.15;;;9.50;99.90;;;;;;5056763;28;20055;-79
2022/11/10 02:45:42;;;;;;;15.82;7.63;;;9.60;99.90;;;;;;5050350;28;20052;-79
2022/11/10 02:48:09;;;;;;;16.25;7.18;;;9.60;99.90;;;;;;5041087;28;20634;-78
2022/11/10 02:50:34;;;;;;;15.77;5.65;;;9.60;99.90;;;;;;5050904;28;20052;-78
2022/11/10 02:53:00;;;;;;;10.05;5.88;;;9.60;99.90;;;;;;5051743;28;20044;-79
2022/11/10 02:55:26;;;;;;;19.08;6.22;;;9.60;99.90;;;;;;5047977;28;20087;-78
2022/11/10 02:57:52;;;;;;;12.10;5.75;;;9.60;99.90;;;;;;5044567;28;20083;-78
2022/11/10 03:00:18;;;;;;;7.40;6.32;;;9.60;99.90;;;;;;5056089;28;20052;-79
2022/11/10 03:02:44;;;;;;;11.18;5.30;;;9.60;99.90;;;;;;5056344;28;20051;-78
2022/11/10 03:05:10;;;;;;;8.95;5.30;;;9.60;99.90;;;;;;5050852;28;20040;-78
2022/11/10 03:07:35;;;;;;;13.85;6.78;;;9.60;99.90;;;;;;5046228;28;20049;-79
2022/11/10 03:10:01;;;;;;;12.13;6.43;;;9.50;99.90;;;;;;5056679;28;20048;-78
2022/11/10 03:12:27;;;;;;;15.00;6.35;;;9.60;99.90;;;;;;5057731;28;20044;-78
2022/11/10 03:14:53;;;;;;;15.05;6.13;;;9.60;99.90;;;;;;5068484;28;20170;-78
2022/11/10 03:17:18;;;;;;;10.48;5.50;;;9.60;99.90;;;;;;5050268;28;20044;-79
2022/11/10 03:19:44;;;;;;;12.18;6.55;;;9.60;99.90;;;;;;5053303;28;20056;-78
2022/11/10 03:22:10;;;;;;;10.90;4.97;;;9.60;99.90;;;;;;5043934;28;20556;-78
2022/11/10 03:24:35;;;;;;;11.32;5.47;;;9.70;99.90;;;;;;5030801;28;20551;-78
2022/11/10 03:27:01;;;;;;;10.45;5.45;;;9.70;99.90;;;;;;5042608;28;20139;-78
2022/11/10 03:29:26;;;;;;;11.13;5.60;;;9.70;99.90;;;;;;5050746;28;20053;-79
2022/11/10 03:31:52;;;;;;;10.63;4.88;;;9.70;99.90;;;;;;5047620;28;20052;-78
2022/11/10 03:34:18;;;;;;;12.18;5.07;;;9.70;99.90;;;;;;5036537;28;20059;-78
2022/11/10 03:36:44;;;;;;;12.23;5.18;;;9.70;99.90;;;;;;5044703;28;20045;-78
2022/11/10 03:39:09;;;;;;;10.25;4.93;;;9.70;99.90;;;;;;5048753;28;20052;-78
2022/11/10 03:41:35;;;;;;;10.57;6.22;;;9.60;99.90;;;;;;5050802;28;20045;-78
2022/11/10 03:44:01;;;;;;;10.90;5.78;;;9.60;99.90;;;;;;5046489;28;20040;-79
2022/11/10 03:46:27;;;;;;;14.07;5.43;;;9.60;99.90;;;;;;5047388;28;20049;-78
2022/11/10 03:48:52;;;;;;;11.68;5.88;;;9.60;99.90;;;;;;5038983;28;20138;-78
2022/11/10 03:51:18;;;;;;;17.73;6.25;;;9.80;99.90;;;;;;5052770;28;20158;-78
2022/11/10 03:53:44;;;;;;;12.30;5.55;;;9.60;99.90;;;;;;5047112;28;20052;-78
2022/11/10 03:56:10;;;;;;;13.95;5.32;;;9.50;99.90;;;;;;5046938;28;20052;-78
2022/11/10 03:58:36;;;;;;;10.90;5.85;;;9.50;99.90;;;;;;5046537;28;21001;-78
2022/11/10 04:01:03;;;;;;;13.93;6.32;;;9.50;99.90;;;;;;5050406;28;20051;-79
2022/11/10 04:03:28;;;;;;;17.55;5.35;;;9.50;99.90;;;;;;5046487;28;20049;-79
2022/11/10 04:16:51;;;;;;;12.80;7.13;;;9.50;99.90;;;;;;5042208;28;20049;-79
2022/11/10 04:19:17;;;;;;;10.50;6.53;;;9.50;99.90;;;;;;5047176;28;20398;-79
2022/11/10 04:21:43;;;;;;;16.20;7.15;;;9.50;99.90;;;;;;5051985;28;20175;-79
2022/11/10 04:24:08;;;;;;;15.82;6.72;;;9.50;99.90;;;;;;5046675;28;20491;-79
2022/11/10 04:26:37;;;;;;;13.27;8.23;;;9.50;99.90;;;;;;5044932;28;20059;-78
2022/11/10 04:29:05;;;;;;;13.70;7.57;;;9.40;99.90;;;;;;5046527;28;20080;-78
2022/11/10 04:31:33;;;;;;;15.20;7.43;;;9.50;99.90;;;;;;5043473;28;20075;-78
2022/11/10 04:33:58;;;;;;;17.65;8.05;;;9.40;99.90;;;;;;5049568;28;20494;-78
2022/11/10 04:36:26;;;;;;;17.33;7.13;;;9.50;99.90;;;;;;5041735;28;20045;-78
2022/11/10 04:38:54;;;;;;;13.30;7.03;;;9.50;99.90;;;;;;5044801;28;20053;-81
2022/11/10 04:41:20;;;;;;;14.85;8.30;;;9.50;99.90;;;;;;5048410;28;20041;-79
2022/11/10 04:43:46;;;;;;;13.45;7.15;;;9.60;99.90;;;;;;5050328;28;20124;-77
2022/11/10 04:46:24;;;;;;;15.05;7.32;;;9.60;99.90;;;;;;5047144;28;20058;-77
2022/11/10 04:48:50;;;;;;;18.17;8.05;;;9.60;99.90;;;;;;5053564;28;20060;-78
2022/11/10 04:51:18;;;;;;;13.48;7.40;;;9.60;99.90;;;;;;5046083;28;20126;-78
2022/11/10 04:53:44;;;;;;;17.02;8.75;;;9.60;99.90;;;;;;5032037;28;20047;-78
2022/11/10 04:56:16;;;;;;;23.73;7.57;;;9.60;99.90;;;;;;5045848;28;20052;-78
2022/11/10 04:58:42;;;;;;;15.05;7.78;;;9.60;99.90;;;;;;5040944;28;20190;-78
2022/11/10 05:01:12;;;;;;;21.88;9.02;;;9.60;99.90;;;;;;5051556;28;20057;-78
2022/11/10 05:03:38;;;;;;;11.15;6.88;;;9.70;99.90;;;;;;5049068;28;20084;-78
2022/11/10 05:06:04;;;;;;;21.38;7.45;;;9.70;99.90;;;;;;5039699;28;20149;-78
2022/11/10 05:08:29;;;;;;;15.90;7.82;;;9.70;99.90;;;;;;5042666;28;20092;-78
2022/11/10 05:10:55;;;;;;;17.45;7.10;;;9.70;99.90;;;;;;5037324;28;20757;-77
2022/11/10 05:13:21;;;;;;;18.73;6.90;;;9.70;99.90;;;;;;5042674;28;20157;-77
2022/11/10 05:15:47;;;;;;;14.00;8.05;;;9.80;99.90;;;;;;5043847;28;20045;-78
2022/11/10 05:18:12;;;;;;;24.70;8.52;;;9.80;99.90;;;;;;5049872;28;20059;-78
2022/11/10 05:20:38;;;;;;;13.82;7.35;;;9.80;99.90;;;;;;5052249;28;20055;-77
2022/11/10 05:25:48;;;;;;;15.15;6.20;;;10.10;99.90;;;;;;5043501;28;20059;-78
2022/11/10 05:28:15;;;;;;;16.67;6.47;;;9.80;99.90;;;;;;5052269;28;20052;-77
2022/11/10 05:30:41;;;;;;;14.23;8.02;;;9.90;99.90;;;;;;5048862;28;20082;-78
2022/11/10 05:33:06;;;;;;;14.80;7.38;;;9.90;99.90;;;;;;5048150;28;20041;-78
2022/11/10 05:35:33;;;;;;;18.60;7.78;;;9.90;99.90;;;;;;5049467;28;20049;-78
2022/11/10 05:37:58;;;;;;;13.50;7.60;;;9.90;99.90;;;;;;5052060;28;20053;-76
2022/11/10 05:40:24;;;;;;;17.23;7.22;;;9.80;99.90;;;;;;5052018;28;20044;-77
2022/11/10 05:42:52;;;;;;;13.20;6.82;;;9.90;99.90;;;;;;5049356;28;20598;-77
2022/11/10 05:45:23;;;;;;;12.27;5.95;;;9.90;99.90;;;;;;5048106;28;20847;-76
2022/11/10 05:47:49;;;;;;;14.70;5.97;;;9.90;99.90;;;;;;5043682;28;20049;-77
2022/11/10 05:50:15;;;;;;;16.50;6.45;;;9.90;99.90;;;;;;5049201;28;20060;-77
2022/11/10 05:52:50;;;;;;;17.15;6.90;;;9.90;99.90;;;;;;5041901;28;20088;-77
2022/11/10 05:55:22;;;;;;;21.63;7.70;;;9.90;99.90;;;;;;5044570;28;20083;-76
2022/11/10 05:57:49;;;;;;;10.45;6.07;;;9.90;99.90;;;;;;5050185;28;20044;-80
2022/11/10 06:00:17;;;;;;;13.05;6.07;;;9.90;99.90;;;;;;5050542;28;20064;-80
2022/11/10 06:02:43;;;;;;;16.70;7.05;;;9.90;99.90;;;;;;5056513;28;20055;-79
2022/11/10 06:05:09;;;;;;;14.05;6.90;;;9.90;99.90;;;;;;5056259;28;20070;-79
2022/11/10 06:07:37;;;;;;;21.92;7.47;;;9.90;99.90;;;;;;5044915;28;20707;-80
2022/11/10 06:10:03;;;;;;;19.25;7.05;;;9.90;99.90;;;;;;5049667;28;20441;-80
2022/11/10 06:12:29;;;;;;;15.55;6.53;;;9.90;99.90;;;;;;5044872;28;20174;-79
2022/11/10 06:14:57;;;;;;;19.15;7.07;;;10.00;99.90;;;;;;5056027;28;20590;-79
2022/11/10 06:17:24;;;;;;;15.15;6.05;;;10.00;99.90;;;;;;5049373;28;20061;-79
2022/11/10 06:19:50;;;;;;;18.80;6.82;;;10.00;99.90;;;;;;5042642;28;20794;-79
2022/11/10 06:22:16;;;;;;;13.48;6.28;;;10.00;99.90;;;;;;5052523;28;20062;-76
2022/11/10 06:24:42;;;;;;;13.48;5.88;;;10.00;99.90;;;;;;5056475;28;20516;-79
2022/11/10 06:27:07;;;;;;;12.52;6.28;;;10.00;99.90;;;;;;5072253;28;20052;-80
2022/11/10 06:29:33;;;;;;;13.48;6.70;;;10.00;99.90;;;;;;5068519;28;20125;-80
2022/11/10 06:31:59;;;;;;;16.95;6.63;;;10.00;99.90;;;;;;5044357;28;20044;-84
2022/11/10 06:34:24;;;;;;;16.55;6.13;;;9.90;99.90;;;;;;5047657;28;20044;-79
2022/11/10 06:36:50;;;;;;;15.38;6.65;;;10.00;99.90;;;;;;5050978;28;20131;-80
2022/11/10 06:39:16;;;;;;;15.85;6.75;;;10.00;99.90;;;;;;5054844;28;20128;-78
2022/11/10 06:41:41;;;;;;;22.33;7.38;;;10.10;99.90;;;;;;5048740;28;20090;-78
2022/11/10 06:44:07;;;;;;;14.57;6.50;;;10.10;99.90;;;;;;5050980;28;21503;-80
2022/11/10 06:46:32;;;;;;;12.93;6.28;;;10.00;99.90;;;;;;5042145;28;20045;-78
2022/11/10 06:48:58;;;;;;;15.02;7.20;;;10.00;99.90;;;;;;5042342;28;20052;-80
2022/11/10 06:51:24;;;;;;;14.43;7.70;;;10.10;99.90;;;;;;5050674;28;20079;-80
2022/11/10 06:53:50;;;;;;;15.60;7.40;;;10.10;99.90;;;;;;5044943;28;20174;-75
2022/11/10 06:56:15;;;;;;;18.80;7.10;;;10.10;99.90;;;;;;5051216;28;20126;-76
2022/11/10 06:58:41;;;;;;;22.27;8.30;;;10.10;99.90;;;;;;5048288;28;20041;-77
2022/11/10 07:01:07;;;;;;;18.17;8.18;;;10.10;99.90;;;;;;5048138;28;20699;-77
2022/11/10 07:03:32;;;;;;;15.38;7.63;;;10.10;99.90;;;;;;5045211;28;21190;-78
2022/11/10 07:05:58;;;;;;;16.40;7.10;;;10.10;99.90;;;;;;5039668;28;20040;-79
2022/11/10 07:08:24;;;;;;;12.70;7.07;;;10.20;99.90;;;;;;5046127;28;20048;-78
2022/11/10 07:10:54;;;;;;;19.10;6.75;;;10.20;99.90;;;;;;5051372;28;20036;-78
2022/11/10 07:13:20;;;;;;;22.70;9.30;;;10.20;99.90;;;;;;5048025;28;20782;-79
2022/11/10 07:15:46;;;;;;;14.18;5.85;;;10.20;99.90;;;;;;5044410;28;20049;-78
2022/11/10 07:18:12;;;;;;;16.38;6.15;;;10.30;99.90;;;;;;5050047;28;20625;-79
2022/11/10 07:20:38;;;;;;;14.05;6.72;;;10.20;99.90;;;;;;5054411;28;20053;-79
2022/11/10 07:23:06;;;;;;;16.05;6.57;;;10.30;99.90;;;;;;5045863;28;20128;-79
2022/11/10 07:25:34;;;;;;;17.02;8.75;;;10.30;99.90;;;;;;5044610;28;20053;-79
2022/11/10 07:28:02;;;;;;;14.02;6.70;;;10.30;99.90;;;;;;5042292;28;20130;-79
2022/11/10 07:30:30;;;;;;;13.65;6.35;;;10.40;99.90;;;;;;5049818;28;20040;-79
2022/11/10 07:33:00;;;;;;;15.10;6.63;;;10.50;99.90;;;;;;5048832;28;20045;-78
2022/11/10 07:35:27;;;;;;;11.10;5.60;;;10.60;99.90;;;;;;5051140;28;20041;-79
2022/11/10 07:37:57;;;;;;;11.38;5.50;;;10.50;99.90;;;;;;5049629;28;20074;-77
2022/11/10 07:40:23;;;;;;;14.70;6.78;;;10.50;99.90;;;;;;5050465;28;20139;-77
2022/11/10 07:42:48;;;;;;;9.88;5.55;;;10.50;99.90;;;;;;5048800;28;20040;-77
2022/11/10 07:45:14;;;;;;;11.55;6.10;;;10.50;99.90;;;;;;5032825;28;20048;-79
2022/11/10 07:47:40;;;;;;;9.48;6.20;;;10.40;99.90;;;;;;5048182;28;20076;-78
2022/11/10 07:50:06;;;;;;;11.30;5.10;;;10.50;99.90;;;;;;5049454;28;20151;-79
2022/11/10 07:52:32;;;;;;;20.80;6.63;;;10.40;99.90;;;;;;5043115;28;20167;-78
2022/11/10 07:54:58;;;;;;;15.82;6.65;;;10.40;99.90;;;;;;5047508;28;20765;-79
2022/11/10 07:57:23;;;;;;;14.45;6.78;;;10.30;99.90;;;;;;5049846;28;20066;-78
2022/11/10 07:59:49;;;;;;;21.95;6.20;;;10.50;99.90;;;;;;5046179;28;20883;-78
2022/11/10 08:02:15;;;;;;;12.55;6.07;;;10.50;99.90;;;;;;5047518;28;20795;-79
2022/11/10 08:04:40;;;;;;;13.77;6.13;;;10.50;99.90;;;;;;5045065;28;21248;-77
2022/11/10 08:07:06;;;;;;;16.48;6.85;;;10.60;99.90;;;;;;5048981;28;20732;-76
2022/11/10 08:09:32;;;;;;;11.80;6.00;;;10.50;99.90;;;;;;5050628;28;20618;-79
2022/11/10 08:11:57;;;;;;;13.35;5.72;;;10.60;99.90;;;;;;5056519;28;20126;-78
2022/11/10 08:14:23;;;;;;;15.88;5.68;;;10.50;99.90;;;;;;5044223;28;20052;-80
2022/11/10 08:16:49;;;;;;;12.25;6.50;;;10.60;99.90;;;;;;5045709;28;20048;-85
2022/11/10 08:19:15;;;;;;;15.98;8.10;;;10.50;99.90;;;;;;5042015;28;20150;-81
2022/11/10 08:21:41;;;;;;;16.02;6.55;;;10.50;99.90;;;;;;5049180;28;20049;-79
2022/11/10 08:24:06;;;;;;;21.95;7.72;;;10.50;99.90;;;;;;5052147;28;20149;-80
2022/11/10 08:26:32;;;;;;;16.02;7.15;;;10.60;99.90;;;;;;5047307;28;20057;-79
2022/11/10 08:28:58;;;;;;;16.27;7.28;;;10.50;99.90;;;;;;5046587;28;20049;-79
2022/11/10 08:31:23;;;;;;;12.48;6.85;;;10.60;99.90;;;;;;5051600;28;20045;-80
2022/11/10 08:33:49;;;;;;;14.45;7.35;;;10.60;99.90;;;;;;5041883;28;20098;-79
2022/11/10 08:36:15;;;;;;;16.10;6.28;;;10.70;99.90;;;;;;5051575;28;20052;-79
2022/11/10 08:38:41;;;;;;;15.93;7.43;;;10.80;99.90;;;;;;5049691;28;20499;-78
2022/11/10 08:41:07;;;;;;;15.52;7.28;;;10.90;99.90;;;;;;5054434;28;20127;-79
2022/11/10 08:43:33;;;;;;;13.30;6.22;;;11.00;99.90;;;;;;5047570;28;20055;-80
2022/11/10 08:46:00;;;;;;;15.95;6.78;;;11.20;99.90;;;;;;5050531;28;20049;-79
2022/11/10 08:48:26;;;;;;;12.15;6.55;;;11.30;99.90;;;;;;5041125;28;20367;-80
2022/11/10 08:50:52;;;;;;;19.98;6.50;;;11.40;99.90;;;;;;5043935;28;20047;-80
2022/11/10 08:53:22;;;;;;;10.43;5.30;;;11.40;99.90;;;;;;5049399;28;20048;-79
2022/11/10 08:55:49;;;;;;;15.93;7.35;;;11.60;99.90;;;;;;5050278;28;20169;-85
2022/11/10 08:58:17;;;;;;;12.80;5.75;;;11.60;99.90;;;;;;5059512;28;20091;-80
2022/11/10 09:00:43;;;;;;;14.10;6.32;;;11.60;99.90;;;;;;5053550;28;20524;-80
2022/11/10 09:03:20;;;;;;;9.75;5.65;;;11.60;99.90;;;;;;5048219;28;20593;-79
2022/11/10 09:05:47;;;;;;;14.38;7.00;;;11.50;99.90;;;;;;5041334;28;20343;-79
2022/11/10 09:08:13;;;;;;;15.43;6.15;;;11.50;99.90;;;;;;5046091;28;20056;-79
2022/11/10 09:10:42;;;;;;;12.05;5.53;;;11.50;99.90;;;;;;5055606;28;20056;-79
2022/11/10 09:13:10;;;;;;;11.77;5.95;;;11.50;99.90;;;;;;5048532;28;20070;-80
2022/11/10 09:15:36;;;;;;;13.43;5.55;;;11.60;99.90;;;;;;5050004;28;20060;-79
2022/11/10 09:18:04;;;;;;;11.90;5.82;;;11.70;99.90;;;;;;5046025;28;20056;-79
2022/11/10 09:20:32;;;;;;;16.65;5.95;;;11.70;99.90;;;;;;5046234;28;20933;-80
2022/11/10 09:23:05;;;;;;;10.05;5.35;;;11.80;99.90;;;;;;5041513;28;20044;-80
2022/11/10 09:25:31;;;;;;;13.32;6.00;;;11.90;99.90;;;;;;5061324;28;20845;-80
2022/11/10 09:27:56;;;;;;;13.77;4.60;;;12.00;99.90;;;;;;5043187;28;20053;-80
2022/11/10 09:30:22;;;;;;;11.43;5.50;;;12.00;99.90;;;;;;5050347;28;20059;-80
2022/11/10 09:32:59;;;;;;;16.55;5.50;;;12.20;99.90;;;;;;5053706;28;20563;-80
2022/11/10 09:35:25;;;;;;;10.30;5.18;;;12.30;99.90;;;;;;5041690;28;20044;-82
2022/11/10 09:37:51;;;;;;;9.48;5.03;;;12.30;99.90;;;;;;5040241;28;20084;-79
2022/11/10 09:40:24;;;;;;;15.02;7.22;;;12.40;99.90;;;;;;5044207;28;20512;-78
2022/11/10 09:42:55;;;;;;;9.77;5.25;;;12.50;99.90;;;;;;5049388;28;20400;-80
2022/11/10 09:45:28;;;;;;;12.00;4.85;;;12.60;99.90;;;;;;5040844;28;20052;-79
2022/11/10 09:47:59;;;;;;;15.07;6.03;;;12.70;99.90;;;;;;5045070;28;20052;-79
2022/11/10 09:50:54;;;;;;;15.15;5.15;;;12.70;99.90;;;;;;5045603;28;20056;-79
2022/11/10 09:53:41;;;;;;;9.93;4.30;;;12.70;99.90;;;;;;5045808;28;20090;-79
2022/11/10 09:56:12;;;;;;;13.70;4.75;;;12.80;99.90;;;;;;5047511;28;20748;-79
2022/11/10 09:58:41;;;;;;;15.68;6.65;;;12.80;99.90;;;;;;5049594;28;20060;-79
2022/11/10 10:01:10;;;;;;;15.32;5.43;;;12.80;99.90;;;;;;5047632;28;20076;-79
2022/11/10 10:03:45;;;;;;;13.65;4.55;;;12.80;99.90;;;;;;5045960;28;20050;-79
2022/11/10 10:06:12;;;;;;;16.05;5.95;;;12.90;99.90;;;;;;5045483;28;20488;-79
2022/11/10 10:09:23;;;;;;;9.60;4.28;;;13.00;99.90;;;;;;5043029;28;20147;-79
2022/11/10 10:12:06;;;;;;;14.55;4.60;;;13.10;99.90;;;;;;5046648;28;20048;-81
2022/11/10 10:15:01;;;;;;;15.77;4.78;;;13.20;99.90;;;;;;5048793;28;20102;-80
2022/11/10 10:17:26;;;;;;;11.05;4.90;;;13.20;99.90;;;;;;5047586;28;20066;-81
2022/11/10 10:20:09;;;;;;;10.82;4.95;;;13.30;99.90;;;;;;5044308;28;20508;-87
2022/11/10 10:22:56;;;;;;;16.83;6.53;;;13.30;99.90;;;;;;5053929;28;20048;-84
2022/11/10 10:25:24;;;;;;;10.43;4.75;;;13.30;99.90;;;;;;5053335;28;20155;-84
2022/11/10 10:27:58;;;;;;;10.75;4.47;;;13.30;99.90;;;;;;5049021;28;20087;-85
2022/11/10 10:30:24;;;;;;;10.77;4.47;;;13.40;99.90;;;;;;5050470;28;20052;-84
2022/11/10 10:32:59;;;;;;;11.93;4.93;;;13.50;99.90;;;;;;5056240;28;20512;-85
2022/11/10 10:35:26;;;;;;;12.73;4.88;;;13.60;99.90;;;;;;5041683;28;20057;-79
2022/11/10 10:37:54;;;;;;;14.52;5.63;;;13.60;99.90;;;;;;5044106;28;20101;-82
2022/11/10 10:40:22;;;;;;;12.55;5.88;;;13.70;99.90;;;;;;5045403;28;20071;-87
2022/11/10 10:42:48;;;;;;;19.65;5.82;;;13.60;99.90;;;;;;5048478;28;20040;-83
2022/11/10 10:45:17;;;;;;;16.73;6.18;;;13.60;99.90;;;;;;5055194;28;20051;-77
2022/11/10 10:47:44;;;;;;;14.18;5.65;;;13.60;99.90;;;;;;5047877;28;20907;-79
2022/11/10 10:50:33;;;;;;;12.60;6.32;;;13.70;99.90;;;;;;5046482;28;20061;-78
2022/11/10 10:53:14;;;;;;;11.38;6.32;;;13.70;99.90;;;;;;5046713;28;20052;-80
2022/11/10 10:55:46;;;;;;;16.67;6.30;;;13.80;99.90;;;;;;5051896;28;20044;-80
2022/11/10 10:58:34;;;;;;;14.77;7.20;;;13.80;99.90;;;;;;5055323;28;21280;-78
2022/11/10 11:01:13;;;;;;;14.88;7.28;;;13.90;99.90;;;;;;5050526;28;20148;-78
2022/11/10 11:03:43;;;;;;;16.70;8.38;;;13.90;99.90;;;;;;5056223;28;20044;-79
2022/11/10 11:06:18;;;;;;;17.23;7.35;;;14.00;99.90;;;;;;5050069;28;20049;-77
2022/11/10 11:09:08;;;;;;;17.55;6.43;;;14.10;99.90;;;;;;5045892;28;20045;-79
2022/11/10 11:11:37;;;;;;;12.18;5.68;;;14.10;99.90;;;;;;5035369;28;20057;-79
2022/11/10 11:14:24;;;;;;;8.98;4.60;;;14.20;99.90;;;;;;5052592;28;20109;-82
2022/11/10 11:16:54;;;;;;;17.42;6.45;;;14.20;99.90;;;;;;5047143;28;20051;-80
2022/11/10 11:19:23;;;;;;;11.55;4.95;;;14.30;99.90;;;;;;5056776;28;20057;-80
2022/11/10 11:22:10;;;;;;;9.13;3.92;;;14.40;99.90;;;;;;5052969;28;20359;-81
2022/11/10 11:25:03;;;;;;;14.45;5.78;;;14.50;99.90;;;;;;5042138;28;20060;-82
2022/11/10 11:27:35;;;;;;;12.88;5.07;;;14.70;99.90;;;;;;5050124;28;20049;-81
2022/11/10 11:30:07;;;;;;;8.30;4.82;;;14.80;99.90;;;;;;5045991;28;20045;-81
2022/11/10 11:32:53;;;;;;;9.55;4.18;;;14.90;99.90;;;;;;5054298;28;20150;-80
2022/11/10 11:35:40;;;;;;;9.55;4.32;;;14.90;99.90;;;;;;5031200;28;20677;-81
2022/11/10 11:38:18;;;;;;;8.63;4.90;;;14.90;99.90;;;;;;5051998;28;20059;-79
2022/11/10 11:41:00;;;;;;;12.93;4.32;;;14.90;99.90;;;;;;5046329;28;20044;-79
2022/11/10 11:43:44;;;;;;;8.88;3.55;;;14.90;99.90;;;;;;5055009;28;20049;-81
2022/11/10 11:46:46;;;;;;;6.65;4.13;;;14.90;99.90;;;;;;5044170;28;20118;-82
2022/11/10 11:49:20;;;;;;;8.32;3.80;;;14.90;99.90;;;;;;5040625;28;20049;-82
2022/11/10 11:52:21;;;;;;;11.38;4.00;;;14.90;99.90;;;;;;5041470;28;20049;-91
2022/11/10 11:55:24;;;;;;;20.92;4.15;;;14.90;99.90;;;;;;5042174;28;20049;-82
2022/11/10 11:58:04;;;;;;;11.07;3.97;;;14.90;99.90;;;;;;5041329;28;20048;-80
2022/11/10 12:01:00;;;;;;;17.40;4.05;;;14.90;99.90;;;;;;5020668;28;20813;-80
2022/11/10 12:03:46;;;;;;;7.97;3.55;;;14.90;99.90;;;;;;5033758;28;20056;-81
2022/11/10 12:06:20;;;;;;;15.18;4.15;;;15.00;99.90;;;;;;5044160;28;20079;-80
2022/11/10 12:09:10;;;;;;;8.45;3.88;;;15.00;99.90;;;;;;5043407;28;20119;-81
2022/11/10 12:11:59;;;;;;;9.73;3.85;;;15.00;99.90;;;;;;5048253;28;20044;-79
2022/11/10 12:14:49;;;;;;;12.52;4.70;;;15.10;99.90;;;;;;5048150;28;20044;-82
2022/11/10 12:17:31;;;;;;;9.98;4.05;;;15.10;99.90;;;;;;5051101;28;20477;-82
2022/11/10 12:20:13;;;;;;;9.15;3.80;;;15.20;99.90;;;;;;5045024;28;20439;-82
2022/11/10 12:22:53;;;;;;;11.85;3.60;;;15.10;99.90;;;;;;5052545;28;20573;-81
2022/11/10 12:25:27;;;;;;;14.95;3.85;;;15.10;99.90;;;;;;5044738;28;20084;-81
2022/11/10 12:28:02;;;;;;;11.57;4.25;;;15.00;99.90;;;;;;5057575;28;20091;-83
2022/11/10 12:30:30;;;;;;;6.38;3.53;;;14.90;99.90;;;;;;5087467;28;20081;-81
2022/11/10 12:33:05;;;;;;;8.80;4.55;;;14.80;99.90;;;;;;5047196;28;20040;-82
2022/11/10 12:35:38;;;;;;;9.93;3.15;;;14.80;99.90;;;;;;5046120;28;20044;-81
2022/11/10 12:38:15;;;;;;;6.90;3.42;;;14.80;99.90;;;;;;5048673;28;20048;-81
2022/11/10 12:40:50;;;;;;;11.70;4.35;;;14.80;99.90;;;;;;5047119;28;20045;-81
2022/11/10 12:43:35;;;;;;;8.85;3.97;;;14.80;99.90;;;;;;5049070;28;20147;-82
2022/11/10 12:46:07;;;;;;;10.50;3.67;;;14.70;99.90;;;;;;5042871;28;20047;-82
2022/11/10 12:48:46;;;;;;;14.23;3.63;;;14.60;99.90;;;;;;5043298;28;20468;-81
2022/11/10 12:51:56;;;;;;;9.10;3.33;;;14.50;99.90;;;;;;5041915;28;20040;-81
2022/11/10 12:54:22;;;;;;;5.55;3.20;;;14.50;99.90;;;;;;5047764;28;20045;-81
2022/11/10 12:56:53;;;;;;;8.70;3.13;;;14.50;99.90;;;;;;5046016;28;20055;-82
2022/11/10 12:59:25;;;;;;;6.32;2.92;;;14.40;99.90;;;;;;5043822;28;20458;-80
2022/11/10 13:01:57;;;;;;;7.47;3.25;;;14.50;99.90;;;;;;5046404;28;20036;-82
2022/11/10 13:04:23;;;;;;;10.27;3.22;;;14.40;99.90;;;;;;5045929;28;20125;-81
2022/11/10 13:06:55;;;;;;;9.77;3.95;;;14.40;99.90;;;;;;5052810;28;20119;-81
2022/11/10 13:09:31;;;;;;;10.48;2.95;;;14.40;99.90;;;;;;5048234;28;20056;-81
2022/11/10 13:12:15;;;;;;;10.52;3.95;;;14.40;99.90;;;;;;5053431;28;20915;-82